GRZ537 Details

Departure: Deadhorse Airport (PASC)
Arrival: Ted Stevens Anchorage International Airport (PANC) at N/A
Route: CQR PUYVO KROTO4
Notes:


Current Weather Information
PASC 230753Z 22007KT 10SM BKN001 M14/M16 A3003 RMK AO2 SLPNO I1000 T11391156
PANC 230753Z 28009KT 10SM SCT065 OVC110 04/01 A2968 RMK AO2 SLP052 T00390006